createdAt,value
2023-03-20T00:02:22.230Z,102009.31
2023-03-20T00:04:50.609Z,101997.09
2023-03-20T00:07:18.823Z,102009.22
2023-03-20T00:09:49.461Z,102003.19
2023-03-20T00:12:25.001Z,101995.38
2023-03-20T00:14:53.597Z,101996.66
2023-03-20T00:17:22.822Z,102009.59
2023-03-20T00:19:51.480Z,102006.09
2023-03-20T00:22:19.750Z,102002.78
2023-03-20T00:24:49.601Z,101991.84
2023-03-20T00:27:19.358Z,101979.50
2023-03-20T00:29:47.648Z,101980.69
2023-03-20T00:32:16.869Z,101988.97
2023-03-20T00:34:45.169Z,101997.59
2023-03-20T00:37:13.560Z,101994.34
2023-03-20T00:39:42.584Z,102008.59
2023-03-20T00:42:21.853Z,102010.81
2023-03-20T00:44:54.163Z,102021.78
2023-03-20T00:47:25.118Z,102024.78
2023-03-20T00:49:56.108Z,102037.88
2023-03-20T00:52:25.506Z,102044.59
2023-03-20T00:54:53.805Z,102041.31
2023-03-20T00:57:26.684Z,102046.38
2023-03-20T00:59:59.234Z,102045.25
2023-03-20T01:02:31.225Z,102036.09
2023-03-20T01:05:00.232Z,102029.22
2023-03-20T01:07:28.899Z,102017.22
2023-03-20T01:09:57.307Z,102025.06
2023-03-20T01:12:27.366Z,102022.53
2023-03-20T01:14:58.771Z,102029.22
2023-03-20T01:17:29.377Z,102032.53
2023-03-20T01:19:57.706Z,102034.16
2023-03-20T01:22:26.310Z,102036.00
2023-03-20T01:24:54.573Z,102036.16
2023-03-20T01:27:23.722Z,102036.25
2023-03-20T01:29:53.662Z,102042.28
2023-03-20T01:32:21.924Z,102026.78
2023-03-20T01:34:50.183Z,102034.13
2023-03-20T01:37:27.224Z,102033.38
2023-03-20T01:39:57.279Z,102015.38
2023-03-20T01:42:26.061Z,102018.53
2023-03-20T01:44:56.022Z,102029.41
2023-03-20T01:47:27.801Z,102023.78
2023-03-20T01:50:32.552Z,102013.97
2023-03-20T01:53:11.141Z,102008.94
2023-03-20T01:55:42.030Z,102025.66
2023-03-20T01:58:17.860Z,102030.59
2023-03-20T02:00:50.021Z,102022.41
2023-03-20T02:03:19.842Z,102019.34
2023-03-20T02:05:49.573Z,102024.31
2023-03-20T02:08:25.344Z,102004.09
2023-03-20T02:10:54.867Z,102004.47
2023-03-20T02:13:24.039Z,101986.84
2023-03-20T02:16:14.157Z,101998.13
2023-03-20T02:18:47.495Z,102003.91
2023-03-20T02:22:08.707Z,102014.03
2023-03-20T02:25:25.182Z,102002.78
2023-03-20T02:28:36.266Z,101991.47
2023-03-20T02:31:47.236Z,101991.56
2023-03-20T02:34:57.554Z,101992.78
2023-03-20T02:37:48.913Z,101985.41
2023-03-20T02:40:31.879Z,101984.56
2023-03-20T02:43:11.491Z,101971.59
2023-03-20T02:45:49.797Z,101966.00
2023-03-20T02:48:31.735Z,101962.09
2023-03-20T02:51:06.973Z,101960.69
2023-03-20T02:53:50.592Z,101938.78
2023-03-20T02:56:27.837Z,101927.31
2023-03-20T02:59:09.037Z,101926.38
2023-03-20T03:01:42.683Z,101930.91
2023-03-20T03:04:17.811Z,101930.56
2023-03-20T03:06:51.760Z,101930.47
2023-03-20T03:09:25.155Z,101930.00
2023-03-20T03:11:58.516Z,101930.84
2023-03-20T03:14:36.938Z,101923.53
2023-03-20T03:17:07.676Z,101933.94
2023-03-20T03:19:39.952Z,101934.56
2023-03-20T03:22:08.899Z,101932.16
2023-03-20T03:24:44.152Z,101935.81
2023-03-20T03:27:21.416Z,101938.84
2023-03-20T03:29:56.693Z,101932.31
2023-03-20T03:32:28.795Z,101932.72
2023-03-20T03:34:58.255Z,101928.88
2023-03-20T03:37:42.222Z,101924.03
2023-03-20T03:40:33.379Z,101927.16
2023-03-20T03:43:07.753Z,101917.78
2023-03-20T03:45:41.934Z,101912.84
2023-03-20T03:48:16.260Z,101905.13
2023-03-20T03:50:49.757Z,101905.41
2023-03-20T03:53:23.786Z,101910.81
2023-03-20T03:55:59.313Z,101914.25
2023-03-20T03:58:33.109Z,101900.25
2023-03-20T04:01:03.990Z,101897.41
2023-03-20T04:03:37.841Z,101900.13
2023-03-20T04:06:10.052Z,101893.28
2023-03-20T04:08:38.389Z,101904.00
2023-03-20T04:11:08.912Z,101910.13
2023-03-20T04:13:37.733Z,101903.91
2023-03-20T04:16:07.572Z,101908.09
2023-03-20T04:18:36.032Z,101905.47
2023-03-20T04:21:06.281Z,101900.59
2023-03-20T04:23:34.627Z,101911.16
2023-03-20T04:26:03.734Z,101907.06
2023-03-20T04:28:35.379Z,101902.47
2023-03-20T04:31:04.422Z,101892.28
2023-03-20T04:33:32.904Z,101892.91
2023-03-20T04:36:01.669Z,101899.56
2023-03-20T04:38:30.229Z,101895.47
2023-03-20T04:40:58.829Z,101883.75
2023-03-20T04:43:27.337Z,101892.22
2023-03-20T04:45:57.136Z,101893.19
2023-03-20T04:48:27.818Z,101883.47
2023-03-20T04:50:56.805Z,101883.75
2023-03-20T04:53:27.139Z,101888.75
2023-03-20T04:55:55.623Z,101885.31
2023-03-20T04:58:23.911Z,101885.56
2023-03-20T05:00:52.806Z,101870.06
2023-03-20T05:03:24.124Z,101884.19
2023-03-20T05:05:53.402Z,101887.09
2023-03-20T05:08:21.783Z,101890.84
2023-03-20T05:10:50.636Z,101886.66
2023-03-20T05:13:19.216Z,101878.94
2023-03-20T05:15:47.907Z,101879.75
2023-03-20T05:18:16.430Z,101879.75
2023-03-20T05:20:46.508Z,101878.56
2023-03-20T05:23:15.161Z,101879.03
2023-03-20T05:25:43.964Z,101876.53
2023-03-20T05:28:12.352Z,101883.72
2023-03-20T05:30:41.727Z,101882.59
2023-03-20T05:33:10.106Z,101891.59
2023-03-20T05:35:38.874Z,101894.63
2023-03-20T05:38:09.358Z,101888.69
2023-03-20T05:40:37.791Z,101895.69
2023-03-20T05:43:06.243Z,101885.72
2023-03-20T05:45:34.743Z,101894.81
2023-03-20T05:48:03.286Z,101893.31
2023-03-20T05:50:32.082Z,101877.97
2023-03-20T05:53:01.050Z,101879.31
2023-03-20T05:55:31.153Z,101887.78
2023-03-20T05:58:00.364Z,101882.47
2023-03-20T06:00:29.348Z,101886.63
2023-03-20T06:02:57.859Z,101892.28
2023-03-20T06:05:26.313Z,101889.72
2023-03-20T06:07:54.756Z,101893.22
2023-03-20T06:10:23.306Z,101897.22
2023-03-20T06:12:53.326Z,101892.66
2023-03-20T06:15:22.218Z,101890.88
2023-03-20T06:17:50.555Z,101895.22
2023-03-20T06:20:20.211Z,101894.84
2023-03-20T06:22:49.403Z,101895.25
2023-03-20T06:25:18.327Z,101892.16
2023-03-20T06:27:48.979Z,101898.84
2023-03-20T06:30:19.449Z,101907.34
2023-03-20T06:32:59.493Z,101911.00
2023-03-20T06:35:31.282Z,101900.31
2023-03-20T06:38:00.024Z,101910.44
2023-03-20T06:40:28.920Z,101900.69
2023-03-20T06:42:57.792Z,101900.94
2023-03-20T06:45:28.087Z,101907.69
2023-03-20T06:47:56.835Z,101906.34
2023-03-20T06:50:25.685Z,101902.28
2023-03-20T06:52:54.063Z,101911.94
2023-03-20T06:55:22.661Z,101901.34
2023-03-20T06:57:51.254Z,101901.59
2023-03-20T07:00:21.698Z,101901.72
2023-03-20T07:02:53.533Z,101908.34
2023-03-20T07:05:23.231Z,101893.88
2023-03-20T07:10:37.821Z,101912.69
2023-03-20T07:13:10.555Z,101922.28
2023-03-20T07:15:45.699Z,101921.44
2023-03-20T07:18:21.042Z,101929.34
2023-03-20T07:20:50.185Z,101927.97
2023-03-20T07:23:19.369Z,101937.00
2023-03-20T07:25:48.937Z,101925.00
2023-03-20T07:28:17.781Z,101923.75
2023-03-20T07:30:46.450Z,101931.59
2023-03-20T07:33:15.611Z,101930.69
2023-03-20T07:35:46.693Z,101930.25
2023-03-20T07:38:15.304Z,101909.56
2023-03-20T07:40:43.810Z,101921.41
2023-03-20T07:43:12.413Z,101923.41
2023-03-20T07:45:40.963Z,101929.47
2023-03-20T07:48:09.867Z,101923.94
2023-03-20T07:50:38.325Z,101932.31
2023-03-20T07:53:08.446Z,101926.41
2023-03-20T07:55:37.213Z,101919.88
2023-03-20T07:58:06.447Z,101918.22
2023-03-20T08:00:34.841Z,101928.44
2023-03-20T08:03:04.182Z,101929.50
2023-03-20T08:05:32.812Z,101921.66
2023-03-20T08:08:01.381Z,101917.56
2023-03-20T08:10:31.690Z,101919.78
2023-03-20T08:13:00.014Z,101920.16
2023-03-20T08:15:28.391Z,101921.28
2023-03-20T08:17:58.854Z,101918.72
2023-03-20T08:20:27.549Z,101920.44
2023-03-20T08:22:55.966Z,101917.75
2023-03-20T08:25:24.485Z,101918.25
2023-03-20T08:27:54.703Z,101918.19
2023-03-20T08:30:23.118Z,101920.50
2023-03-20T08:32:51.466Z,101928.91
2023-03-20T08:35:32.589Z,101924.72
2023-03-20T08:38:02.833Z,101924.09
2023-03-20T08:40:32.103Z,101926.13
2023-03-20T08:43:01.659Z,101928.75
2023-03-20T08:45:29.870Z,101923.09
2023-03-20T08:47:58.532Z,101918.31
2023-03-20T08:50:28.236Z,101930.50
2023-03-20T08:52:56.925Z,101936.06
2023-03-20T08:55:25.302Z,101935.75
2023-03-20T08:57:57.330Z,101927.50
2023-03-20T09:00:27.716Z,101930.53
2023-03-20T09:02:56.461Z,101923.50
2023-03-20T09:05:25.099Z,101931.47
2023-03-20T09:07:53.461Z,101929.25
2023-03-20T09:10:21.995Z,101932.66
2023-03-20T09:12:50.351Z,101934.97
2023-03-20T09:15:18.775Z,101933.63
2023-03-20T09:17:48.713Z,101940.53
2023-03-20T09:20:17.743Z,101932.91
2023-03-20T09:22:46.316Z,101933.78
2023-03-20T09:25:15.387Z,101925.66
2023-03-20T09:27:43.915Z,101932.88
2023-03-20T09:30:15.148Z,101931.28
2023-03-20T09:32:43.634Z,101922.38
2023-03-20T09:35:13.465Z,101926.00
2023-03-20T09:37:41.937Z,101933.34
2023-03-20T09:40:21.110Z,101935.38
2023-03-20T09:42:58.738Z,101929.75
2023-03-20T09:45:46.670Z,101915.06
2023-03-20T09:48:22.759Z,101929.47
2023-03-20T09:51:04.337Z,101925.53
2023-03-20T09:53:37.741Z,101927.13
2023-03-20T09:56:11.853Z,101924.94
2023-03-20T09:58:45.057Z,101927.06
2023-03-20T10:01:17.008Z,101929.38
2023-03-20T10:03:52.154Z,101928.50
2023-03-20T10:06:22.076Z,101914.00
2023-03-20T10:08:52.093Z,101920.63
2023-03-20T10:11:48.618Z,101924.38
2023-03-20T10:14:27.249Z,101923.50
2023-03-20T10:17:14.228Z,101922.91
2023-03-20T10:19:47.351Z,101924.63
2023-03-20T10:22:25.988Z,101926.53
2023-03-20T10:25:02.710Z,101916.75
2023-03-20T10:27:39.518Z,101931.09
2023-03-20T10:30:27.644Z,101913.25
2023-03-20T10:33:11.101Z,101917.75
2023-03-20T10:35:48.693Z,101919.28
2023-03-20T10:38:38.291Z,101917.88
2023-03-20T10:41:15.466Z,101910.78
2023-03-20T10:43:47.455Z,101918.63
2023-03-20T10:46:20.919Z,101903.91
2023-03-20T10:48:53.368Z,101910.38
2023-03-20T10:51:29.242Z,101907.63
2023-03-20T10:54:05.166Z,101910.03
2023-03-20T10:56:41.543Z,101900.66
2023-03-20T10:59:24.846Z,101906.94
2023-03-20T11:01:53.442Z,101912.25
2023-03-20T11:04:22.423Z,101901.38
2023-03-20T11:06:59.845Z,101895.13
2023-03-20T11:09:31.445Z,101907.22
2023-03-20T11:12:02.748Z,101895.09
2023-03-20T11:14:37.505Z,101897.44
2023-03-20T11:17:07.495Z,101893.22
2023-03-20T11:19:38.352Z,101892.84
2023-03-20T11:22:21.400Z,101892.78
2023-03-20T11:24:55.196Z,101893.47
2023-03-20T11:27:28.576Z,101879.78
2023-03-20T11:29:59.622Z,101892.25
2023-03-20T11:32:32.174Z,101893.28
2023-03-20T11:35:24.946Z,101891.66
2023-03-20T11:37:55.872Z,101870.44
2023-03-20T11:40:32.006Z,101876.63
2023-03-20T11:43:11.565Z,101883.09
2023-03-20T11:45:43.236Z,101875.28
2023-03-20T11:48:21.406Z,101883.75
2023-03-20T11:51:03.944Z,101879.72
2023-03-20T11:53:36.844Z,101878.09
2023-03-20T11:56:12.062Z,101885.31
2023-03-20T11:58:52.931Z,101881.34
2023-03-20T12:01:23.346Z,101882.28
2023-03-20T12:03:55.887Z,101883.63
2023-03-20T12:06:27.706Z,101881.13
2023-03-20T12:09:02.524Z,101885.63
2023-03-20T12:11:48.464Z,101875.78
2023-03-20T12:14:32.274Z,101879.38
2023-03-20T12:17:35.283Z,101879.56
2023-03-20T12:20:13.869Z,101865.44
2023-03-20T12:22:54.281Z,101871.75
2023-03-20T12:25:27.141Z,101880.19
2023-03-20T12:28:08.736Z,101866.16
2023-03-20T12:31:02.425Z,101877.03
2023-03-20T12:33:43.277Z,101868.97
2023-03-20T12:36:17.719Z,101873.19
2023-03-20T12:38:46.926Z,101866.31
2023-03-20T12:41:25.184Z,101875.16
2023-03-20T12:44:25.354Z,101865.44
2023-03-20T12:47:05.462Z,101860.50
2023-03-20T12:49:44.776Z,101854.56
2023-03-20T12:52:24.424Z,101857.81
2023-03-20T12:55:33.615Z,101857.09
2023-03-20T12:58:21.222Z,101854.38
2023-03-20T13:01:04.024Z,101842.13
2023-03-20T13:03:50.735Z,101847.25
2023-03-20T13:06:27.509Z,101849.84
2023-03-20T13:09:31.959Z,101843.25
2023-03-20T13:12:09.630Z,101845.53
2023-03-20T13:14:46.340Z,101832.72
2023-03-20T13:17:26.181Z,101835.78
2023-03-20T13:20:21.930Z,101838.28
2023-03-20T13:23:11.277Z,101833.63
2023-03-20T13:26:04.186Z,101834.56
2023-03-20T13:28:42.905Z,101834.41
2023-03-20T13:31:27.340Z,101837.56
2023-03-20T13:34:07.255Z,101818.63
2023-03-20T13:36:57.436Z,101825.78
2023-03-20T13:39:34.839Z,101826.75
2023-03-20T13:42:07.732Z,101822.19
2023-03-20T13:44:37.058Z,101823.38
2023-03-20T13:47:11.835Z,101823.63
2023-03-20T13:49:50.819Z,101816.09
2023-03-20T13:52:23.130Z,101818.25
2023-03-20T13:55:14.759Z,101814.88
2023-03-20T13:58:07.200Z,101818.13
2023-03-20T14:00:45.362Z,101814.94
2023-03-20T14:03:23.412Z,101800.69
2023-03-20T14:05:53.294Z,101811.31
2023-03-20T14:08:36.949Z,101812.47
2023-03-20T14:11:16.838Z,101818.25
2023-03-20T14:13:49.896Z,101809.13
2023-03-20T14:16:20.853Z,101809.50
2023-03-20T14:18:51.762Z,101811.13
2023-03-20T14:21:25.703Z,101806.59
2023-03-20T14:24:04.607Z,101811.50
2023-03-20T14:26:38.505Z,101808.34
2023-03-20T14:29:33.807Z,101808.72
2023-03-20T14:32:52.852Z,101818.72
2023-03-20T14:35:28.667Z,101816.88
2023-03-20T14:38:37.179Z,101812.53
2023-03-20T14:41:16.336Z,101814.88
2023-03-20T14:44:02.196Z,101818.28
2023-03-20T14:46:42.247Z,101810.25
2023-03-20T14:49:44.907Z,101796.38
2023-03-20T14:52:37.487Z,101793.53
2023-03-20T14:55:35.786Z,101808.41
2023-03-20T14:58:07.564Z,101802.63
2023-03-20T15:00:47.821Z,101794.16
2023-03-20T15:03:19.209Z,101801.81
2023-03-20T15:05:49.211Z,101794.66
2023-03-20T15:08:25.462Z,101792.25
2023-03-20T15:10:58.771Z,101804.28
2023-03-20T15:13:31.097Z,101789.25
2023-03-20T15:16:07.038Z,101790.16
2023-03-20T15:18:41.103Z,101800.97
2023-03-20T15:21:18.701Z,101808.34
2023-03-20T15:23:48.719Z,101794.22
2023-03-20T15:26:25.426Z,101797.63
2023-03-20T15:29:02.560Z,101789.09
2023-03-20T15:31:33.501Z,101790.53
2023-03-20T15:34:04.858Z,101794.00
2023-03-20T15:36:37.109Z,101805.00
2023-03-20T15:39:15.046Z,101786.97
2023-03-20T15:41:51.718Z,101781.97
2023-03-20T15:44:24.361Z,101791.72
2023-03-20T15:46:57.834Z,101791.69
2023-03-20T15:49:27.295Z,101780.09
2023-03-20T15:52:04.237Z,101780.03
2023-03-20T15:54:34.133Z,101782.34
2023-03-20T15:57:05.426Z,101783.13
2023-03-20T15:59:35.390Z,101773.31
2023-03-20T16:02:04.894Z,101783.88
2023-03-20T16:04:35.164Z,101784.63
2023-03-20T16:07:04.169Z,101779.91
2023-03-20T16:09:45.336Z,101785.81
2023-03-20T16:12:18.811Z,101778.31
2023-03-20T16:14:50.049Z,101781.59
2023-03-20T16:17:21.331Z,101764.09
2023-03-20T16:19:49.989Z,101778.03
2023-03-20T16:22:25.820Z,101776.28
2023-03-20T16:24:59.587Z,101769.94
2023-03-20T16:27:34.024Z,101777.59
2023-03-20T16:30:08.828Z,101776.97
2023-03-20T16:32:41.762Z,101774.81
2023-03-20T16:35:19.232Z,101778.22
2023-03-20T16:37:56.382Z,101771.09
2023-03-20T16:40:33.917Z,101784.03
2023-03-20T16:43:14.953Z,101770.53
2023-03-20T16:45:46.119Z,101774.28
2023-03-20T16:48:32.330Z,101784.88
2023-03-20T16:51:17.775Z,101775.97
2023-03-20T16:53:48.720Z,101780.81
2023-03-20T16:56:26.182Z,101773.78
2023-03-20T16:58:57.275Z,101773.25
2023-03-20T17:01:29.130Z,101769.25
2023-03-20T17:03:59.894Z,101771.69
2023-03-20T17:06:45.664Z,101776.47
2023-03-20T17:09:24.052Z,101774.56
2023-03-20T17:12:03.029Z,101761.97
2023-03-20T17:14:34.119Z,101773.06
2023-03-20T17:17:02.604Z,101758.31
2023-03-20T17:19:34.150Z,101765.72
2023-03-20T17:22:05.625Z,101771.53
2023-03-20T17:24:34.264Z,101764.44
2023-03-20T17:27:02.768Z,101765.63
2023-03-20T17:29:32.682Z,101769.31
2023-03-20T17:32:01.426Z,101768.91
2023-03-20T17:34:30.072Z,101764.69
2023-03-20T17:37:01.588Z,101775.31
2023-03-20T17:39:30.496Z,101784.69
2023-03-20T17:41:58.900Z,101774.44
2023-03-20T17:44:28.190Z,101786.50
2023-03-20T17:47:01.068Z,101786.28
2023-03-20T17:49:30.163Z,101781.69
2023-03-20T17:51:58.721Z,101793.28
2023-03-20T17:54:28.457Z,101791.63
2023-03-20T17:56:58.291Z,101788.31
2023-03-20T17:59:30.986Z,101783.22
2023-03-20T18:02:00.832Z,101781.72
2023-03-20T18:04:32.064Z,101782.81
2023-03-20T18:07:03.893Z,101781.47
2023-03-20T18:09:33.705Z,101776.00
2023-03-20T18:12:02.696Z,101777.09
2023-03-20T18:14:31.050Z,101763.50
2023-03-20T18:17:01.332Z,101775.00
2023-03-20T18:19:31.340Z,101781.91
2023-03-20T18:22:01.536Z,101787.66
2023-03-20T18:24:30.308Z,101789.75
2023-03-20T18:26:59.789Z,101795.84
2023-03-20T18:29:29.251Z,101789.16
2023-03-20T18:31:58.728Z,101795.50
2023-03-20T18:34:29.111Z,101788.28
2023-03-20T18:36:57.972Z,101798.81
2023-03-20T18:39:28.775Z,101798.50
2023-03-20T18:41:57.486Z,101798.06
2023-03-20T18:44:25.958Z,101801.19
2023-03-20T18:46:54.658Z,101797.94
2023-03-20T18:49:23.220Z,101801.34
2023-03-20T18:51:54.266Z,101803.88
2023-03-20T18:54:22.841Z,101789.72
2023-03-20T18:56:52.045Z,101795.97
2023-03-20T18:59:21.274Z,101800.56
2023-03-20T19:01:54.221Z,101793.59
2023-03-20T19:04:23.719Z,101787.72
2023-03-20T19:06:54.061Z,101789.78
2023-03-20T19:09:22.660Z,101782.03
2023-03-20T19:11:51.546Z,101780.44
2023-03-20T19:14:20.262Z,101791.69
2023-03-20T19:16:49.136Z,101793.91
2023-03-20T19:19:17.804Z,101786.19
2023-03-20T19:21:46.382Z,101776.59
2023-03-20T19:24:18.321Z,101773.16
2023-03-20T19:26:46.801Z,101784.66
2023-03-20T19:29:15.612Z,101783.88
2023-03-20T19:31:44.267Z,101779.44
2023-03-20T19:34:38.918Z,101776.06
2023-03-20T19:37:01.503Z,101783.88
2023-03-20T19:39:32.790Z,101771.97
2023-03-20T19:42:15.619Z,101773.50
2023-03-20T19:44:50.045Z,101785.03
2023-03-20T19:47:18.645Z,101776.75
2023-03-20T19:49:47.295Z,101773.41
2023-03-20T19:52:28.402Z,101771.38
2023-03-20T19:55:03.550Z,101778.22
2023-03-20T19:57:33.012Z,101773.94
2023-03-20T20:00:47.187Z,101776.75
2023-03-20T20:02:50.809Z,101772.38
2023-03-20T20:05:28.689Z,101773.25
2023-03-20T20:10:50.089Z,101767.03
2023-03-20T20:13:21.270Z,101766.00
2023-03-20T20:15:51.477Z,101754.50
2023-03-20T20:18:21.998Z,101758.22
2023-03-20T20:23:41.817Z,101763.25
2023-03-20T20:26:11.899Z,101762.75
2023-03-20T20:28:40.609Z,101759.22
2023-03-20T20:31:09.401Z,101755.97
2023-03-20T20:33:38.459Z,101749.34
2023-03-20T20:36:57.669Z,101762.22
2023-03-20T20:39:00.691Z,101760.09
2023-03-20T20:41:31.258Z,101750.75
2023-03-20T20:44:17.296Z,101753.47
2023-03-20T20:46:46.768Z,101757.91
2023-03-20T20:49:19.526Z,101750.03
2023-03-20T20:51:48.977Z,101761.03
2023-03-20T20:54:17.962Z,101767.31
2023-03-20T20:56:47.802Z,101767.09
2023-03-20T20:59:16.568Z,101764.34
2023-03-20T21:01:45.094Z,101766.38
2023-03-20T21:04:15.692Z,101751.16
2023-03-20T21:07:08.148Z,101759.97
2023-03-20T21:09:33.647Z,101762.91
2023-03-20T21:12:08.238Z,101758.66
2023-03-20T21:14:37.539Z,101759.16
2023-03-20T21:17:06.939Z,101757.88
2023-03-20T21:19:40.407Z,101763.84
2023-03-20T21:22:12.193Z,101754.44
2023-03-20T21:24:41.516Z,101760.09
2023-03-20T21:27:17.452Z,101770.00
2023-03-20T21:29:48.195Z,101758.97
2023-03-20T21:32:19.930Z,101770.22
2023-03-20T21:34:49.974Z,101767.28
2023-03-20T21:38:22.862Z,101762.25
2023-03-20T21:40:12.343Z,101759.47
2023-03-20T21:42:43.153Z,101770.00
2023-03-20T21:46:13.514Z,101761.06
2023-03-20T21:48:42.455Z,101764.69
2023-03-20T21:51:39.925Z,101755.56
2023-03-20T21:54:46.058Z,101754.50
2023-03-20T21:57:04.941Z,101764.56
2023-03-20T21:59:55.055Z,101766.34
2023-03-20T22:02:19.181Z,101754.31
2023-03-20T22:05:34.843Z,101748.44
2023-03-20T22:11:24.700Z,101753.78
2023-03-20T22:17:06.440Z,101753.84
2023-03-20T22:22:34.468Z,101756.56
2023-03-20T22:25:20.344Z,101749.66
2023-03-20T22:34:09.702Z,101741.00
2023-03-20T22:42:24.263Z,101741.59
2023-03-20T22:44:59.271Z,101735.28
2023-03-20T22:47:14.826Z,101735.91
2023-03-20T22:49:44.946Z,101750.28
2023-03-20T22:52:29.240Z,101748.94
2023-03-20T22:55:00.900Z,101738.50
2023-03-20T22:57:42.115Z,101743.63
2023-03-20T23:00:17.999Z,101736.47
2023-03-20T23:02:47.636Z,101727.47
2023-03-20T23:05:20.191Z,101733.84
2023-03-20T23:07:48.847Z,101723.84
2023-03-20T23:10:17.743Z,101723.97
2023-03-20T23:12:46.411Z,101730.41
2023-03-20T23:15:15.616Z,101729.16
2023-03-20T23:17:47.040Z,101729.59
2023-03-20T23:20:21.342Z,101726.22
2023-03-20T23:22:50.970Z,101722.09
2023-03-20T23:25:36.038Z,101723.63
2023-03-20T23:28:07.635Z,101722.63
2023-03-20T23:31:07.369Z,101716.56
2023-03-20T23:33:24.883Z,101713.72
2023-03-20T23:36:12.503Z,101716.91
2023-03-20T23:38:46.070Z,101705.50
2023-03-20T23:41:15.966Z,101709.25
2023-03-20T23:43:45.170Z,101717.06
2023-03-20T23:46:13.682Z,101710.88
2023-03-20T23:48:42.649Z,101712.13
2023-03-20T23:51:12.509Z,101708.59
2023-03-20T23:53:41.180Z,101711.03
2023-03-20T23:56:13.414Z,101708.16
2023-03-20T23:58:51.136Z,101705.16
